Marrum, Netherlands
Current Conditions -  °F | °C
As of 9:25 AM on Thursday 29 Jan 2015 (Local Time) from EHLW Reporting Station
Overcast Overcast  
Wind Chill: 29°   Ceiling: 5000
Heat Index: 37°   Visibility: 6mi
Dew Point: 32°   Wind: 14mph
Humidity: 81%   Direction: 250°WSW
Pressure: 29.03"   Gusts: NA
Location:  53.32°N, 5.8°E
Report Text: EHLW 290825Z AUTO 25012KT 9999 FEW015TCU SCT045 OVC050 03/M00 Q0983 BLU
Loading
Personal Weather Stations






























Interactive Weather Map New forecast layout! Learn more

10-Day Weather Forecast

Advertisements
Track Severe Weather on mobile